Terminal Aerodrome Forecast
Issued by NWS

Home | Current Version | Previous Version | Text Only | Print | Product List | Glossary On
Versions: 1 2 3 4 5 6 7 8 9 10 11 12 13 14 15 16 17 18 19 20 21
372
FTUS43 KGRR 090540
TAFAZO
TAF
KAZO 090540Z 0906/1006 28009KT 2SM -SHSN BKN009
     FM090700 28008KT 3/4SM -SHSN BR BKN009
     FM091200 28008KT 2SM -SHSN BR OVC015
     FM091800 28010KT 4SM -SHSN OVC025=

USA.gov is the U.S. government's official web portal to all federal, state and local government web resources and services.